Time;durP1;ratioP1;P1;durP2;ratioP2;P2;SDS_P1;SDS_P2;PMS_P1;PMS_P2;Temp;Humidity;BMP_temperature;BMP_pressure;BME280_temperature;BME280_humidity;BME280_pressure;Samples;Min_cycle;Max_cycle;Signal;HPM_P1;HPM_P2
2023/04/30 00:02:11;;;;;;;28.65;17.30;;;;;;;;;;5076263;28;20036;-71
2023/04/30 00:04:37;;;;;;;64.13;48.58;;;;;;;;;;5076745;28;20369;-71
2023/04/30 00:07:04;;;;;;;70.88;52.67;;;;;;;;;;5076572;28;20086;-70
2023/04/30 00:09:31;;;;;;;259.65;182.88;;;;;;;;;;5076617;28;20469;-71
2023/04/30 00:11:57;;;;;;;159.68;110.65;;;;;;;;;;5076559;28;20024;-69
2023/04/30 00:14:24;;;;;;;365.05;209.15;;;;;;;;;;5076439;28;20031;-69
2023/04/30 00:16:50;;;;;;;186.40;110.15;;;;;;;;;;5076456;28;20025;-69
2023/04/30 00:19:17;;;;;;;212.90;129.35;;;;;;;;;;5076367;28;20496;-69
2023/04/30 00:21:44;;;;;;;303.80;172.65;;;;;;;;;;5076283;28;20126;-71
2023/04/30 00:24:11;;;;;;;291.73;188.23;;;;;;;;;;5076506;28;20094;-71
2023/04/30 00:26:38;;;;;;;211.02;131.55;;;;;;;;;;5076236;28;20174;-71
2023/04/30 00:29:05;;;;;;;106.53;65.15;;;;;;;;;;5076136;28;20020;-67
2023/04/30 00:31:32;;;;;;;61.55;38.40;;;;;;;;;;5076279;28;20024;-70
2023/04/30 00:33:58;;;;;;;65.50;40.63;;;;;;;;;;5076277;28;20542;-68
2023/04/30 00:36:25;;;;;;;52.70;34.25;;;;;;;;;;5075921;28;20103;-70
2023/04/30 00:38:52;;;;;;;66.70;45.80;;;;;;;;;;5076046;28;20024;-70
2023/04/30 00:41:18;;;;;;;79.03;50.38;;;;;;;;;;5076193;28;20032;-70
2023/04/30 00:43:46;;;;;;;218.75;135.70;;;;;;;;;;5075980;28;20045;-70
2023/04/30 00:46:12;;;;;;;148.70;93.65;;;;;;;;;;5075978;28;20021;-69
2023/04/30 00:48:39;;;;;;;93.82;60.58;;;;;;;;;;5075822;28;20048;-71
2023/04/30 00:51:06;;;;;;;87.30;51.50;;;;;;;;;;5075751;28;20029;-69
2023/04/30 00:53:33;;;;;;;76.47;45.13;;;;;;;;;;5075911;28;20016;-70
2023/04/30 00:56:00;;;;;;;107.88;56.75;;;;;;;;;;5069374;28;20362;-68
2023/04/30 00:58:26;;;;;;;114.10;60.15;;;;;;;;;;5060350;28;20095;-69
2023/04/30 01:00:53;;;;;;;66.80;39.78;;;;;;;;;;5055741;28;20025;-69
2023/04/30 01:03:21;;;;;;;48.88;33.38;;;;;;;;;;5055622;28;20021;-68
2023/04/30 01:05:49;;;;;;;72.97;48.92;;;;;;;;;;5055501;28;20021;-68
2023/04/30 01:08:15;;;;;;;282.70;192.23;;;;;;;;;;5055348;28;20047;-70
2023/04/30 01:10:48;;;;;;;143.60;94.10;;;;;;;;;;5060305;28;20409;-68
2023/04/30 01:13:17;;;;;;;126.40;86.15;;;;;;;;;;5069873;28;20110;-69
2023/04/30 01:15:51;;;;;;;116.35;78.53;;;;;;;;;;5055316;28;20103;-69
2023/04/30 01:18:17;;;;;;;65.68;45.42;;;;;;;;;;5055286;28;20084;-68
2023/04/30 01:20:48;;;;;;;41.10;27.73;;;;;;;;;;5055210;28;20028;-68
2023/04/30 01:23:19;;;;;;;47.72;31.10;;;;;;;;;;5055289;28;20029;-67
2023/04/30 01:26:05;;;;;;;45.45;28.15;;;;;;;;;;5055052;28;20025;-71
2023/04/30 01:28:32;;;;;;;50.15;32.85;;;;;;;;;;5055214;28;20025;-71
2023/04/30 01:30:59;;;;;;;62.55;38.65;;;;;;;;;;5054975;28;20025;-71
2023/04/30 01:33:26;;;;;;;40.67;26.25;;;;;;;;;;5055265;28;20029;-71
2023/04/30 01:35:54;;;;;;;53.30;28.63;;;;;;;;;;5055032;28;20021;-70
2023/04/30 01:38:41;;;;;;;66.85;34.33;;;;;;;;;;5054672;28;20029;-71
2023/04/30 01:41:08;;;;;;;46.30;29.55;;;;;;;;;;5054862;28;20021;-70
2023/04/30 01:43:37;;;;;;;50.47;28.63;;;;;;;;;;5054802;28;20078;-68
2023/04/30 01:46:04;;;;;;;42.55;26.17;;;;;;;;;;5054980;28;20024;-69
2023/04/30 01:48:30;;;;;;;76.50;54.65;;;;;;;;;;5054706;28;20021;-70
2023/04/30 01:51:04;;;;;;;104.05;69.07;;;;;;;;;;5054814;28;20049;-69
2023/04/30 01:53:36;;;;;;;80.53;53.97;;;;;;;;;;5054673;28;20035;-69
2023/04/30 01:56:05;;;;;;;129.55;84.07;;;;;;;;;;5054777;28;20408;-70
2023/04/30 01:58:32;;;;;;;83.30;49.85;;;;;;;;;;5054633;28;20072;-72
2023/04/30 02:00:58;;;;;;;60.88;35.65;;;;;;;;;;5065009;28;20447;-70
2023/04/30 02:03:25;;;;;;;63.92;42.83;;;;;;;;;;5073619;28;20016;-68
2023/04/30 02:05:53;;;;;;;69.75;44.42;;;;;;;;;;5073171;28;20074;-68
2023/04/30 02:08:19;;;;;;;63.10;36.25;;;;;;;;;;5073154;28;20052;-68
2023/04/30 02:10:46;;;;;;;103.05;51.25;;;;;;;;;;5073510;28;20024;-68
2023/04/30 02:13:13;;;;;;;52.38;33.90;;;;;;;;;;5074206;28;20466;-68
2023/04/30 02:15:39;;;;;;;30.75;20.98;;;;;;;;;;5073385;28;20456;-68
2023/04/30 02:18:06;;;;;;;36.25;22.25;;;;;;;;;;5073266;28;20370;-68
2023/04/30 02:20:33;;;;;;;25.88;19.50;;;;;;;;;;5073977;28;20075;-69
2023/04/30 02:22:59;;;;;;;27.27;16.80;;;;;;;;;;5073528;28;20099;-67
2023/04/30 02:25:26;;;;;;;92.03;67.40;;;;;;;;;;5072887;28;20032;-68
2023/04/30 02:27:53;;;;;;;43.45;34.10;;;;;;;;;;5073927;28;20056;-68
2023/04/30 02:30:19;;;;;;;48.13;33.40;;;;;;;;;;5073770;28;20021;-68
2023/04/30 02:32:46;;;;;;;24.30;19.83;;;;;;;;;;5073259;28;20025;-67
2023/04/30 02:35:13;;;;;;;32.67;21.08;;;;;;;;;;5069390;28;20012;-68
2023/04/30 02:37:40;;;;;;;25.98;16.60;;;;;;;;;;5072745;28;20016;-68
2023/04/30 02:40:07;;;;;;;20.95;15.60;;;;;;;;;;5072695;28;20028;-68
2023/04/30 02:42:34;;;;;;;27.75;14.95;;;;;;;;;;5070592;28;20082;-66
2023/04/30 02:45:00;;;;;;;22.30;16.40;;;;;;;;;;5072643;28;20024;-71
2023/04/30 02:47:27;;;;;;;25.10;16.95;;;;;;;;;;5072600;28;20024;-68
2023/04/30 02:49:54;;;;;;;19.73;14.88;;;;;;;;;;5069815;28;20020;-67
2023/04/30 02:52:20;;;;;;;18.73;13.48;;;;;;;;;;5072547;28;20023;-66
2023/04/30 02:54:47;;;;;;;19.73;14.13;;;;;;;;;;5072409;28;20020;-67
2023/04/30 02:57:13;;;;;;;21.30;15.40;;;;;;;;;;5067165;28;20053;-67
2023/04/30 02:59:44;;;;;;;21.10;14.52;;;;;;;;;;5072669;28;20029;-68
2023/04/30 03:02:12;;;;;;;21.75;16.63;;;;;;;;;;5072354;28;20025;-68
2023/04/30 03:04:38;;;;;;;20.48;16.23;;;;;;;;;;5072310;28;20103;-67
2023/04/30 03:07:05;;;;;;;25.95;18.15;;;;;;;;;;5070606;28;20024;-68
2023/04/30 03:09:32;;;;;;;24.13;16.77;;;;;;;;;;5072183;28;20036;-68
2023/04/30 03:11:59;;;;;;;19.58;16.10;;;;;;;;;;5072174;28;20585;-67
2023/04/30 03:14:26;;;;;;;23.58;17.08;;;;;;;;;;5070263;28;20523;-67
2023/04/30 03:16:52;;;;;;;21.77;16.73;;;;;;;;;;5070928;28;20490;-69
2023/04/30 03:19:23;;;;;;;20.08;15.88;;;;;;;;;;5072276;28;20016;-68
2023/04/30 03:21:51;;;;;;;25.67;17.27;;;;;;;;;;5072145;28;20013;-71
2023/04/30 03:24:18;;;;;;;19.70;16.50;;;;;;;;;;5069951;28;20052;-70
2023/04/30 03:26:45;;;;;;;24.23;16.67;;;;;;;;;;5071913;28;20037;-68
2023/04/30 03:29:12;;;;;;;28.40;18.38;;;;;;;;;;5072135;28;20017;-67
2023/04/30 03:31:38;;;;;;;20.23;15.77;;;;;;;;;;5072042;28;20012;-68
2023/04/30 03:34:05;;;;;;;22.17;16.30;;;;;;;;;;5072081;28;20096;-67
2023/04/30 03:36:32;;;;;;;23.05;16.30;;;;;;;;;;5076306;28;20530;-68
2023/04/30 03:38:59;;;;;;;22.65;17.65;;;;;;;;;;5077167;28;20047;-68
2023/04/30 03:41:25;;;;;;;22.98;17.45;;;;;;;;;;5076855;28;20462;-68
2023/04/30 03:43:53;;;;;;;19.00;16.75;;;;;;;;;;5073291;28;20032;-68
2023/04/30 03:46:19;;;;;;;22.85;16.55;;;;;;;;;;5076093;28;20444;-69
2023/04/30 03:48:46;;;;;;;21.23;15.52;;;;;;;;;;5076903;28;20029;-67
2023/04/30 03:51:13;;;;;;;22.75;17.15;;;;;;;;;;5076767;28;20017;-67
2023/04/30 03:53:39;;;;;;;21.17;15.80;;;;;;;;;;5076879;28;20066;-67
2023/04/30 03:56:07;;;;;;;21.88;17.05;;;;;;;;;;5076776;28;20029;-67
2023/04/30 03:58:33;;;;;;;22.05;16.38;;;;;;;;;;5076754;28;20060;-68
2023/04/30 04:01:00;;;;;;;45.38;31.30;;;;;;;;;;5077055;28;20093;-67
2023/04/30 04:03:27;;;;;;;43.47;28.42;;;;;;;;;;5076718;28;20033;-67
2023/04/30 04:05:53;;;;;;;19.52;15.25;;;;;;;;;;5076646;28;20143;-68
2023/04/30 04:08:20;;;;;;;22.30;16.42;;;;;;;;;;5076564;28;20028;-67
2023/04/30 04:10:47;;;;;;;31.52;20.83;;;;;;;;;;5076320;28;20024;-67
2023/04/30 04:13:14;;;;;;;27.60;16.88;;;;;;;;;;5072895;28;20556;-67
2023/04/30 04:15:40;;;;;;;55.08;30.52;;;;;;;;;;5073819;28;20076;-69
2023/04/30 04:18:07;;;;;;;47.75;25.77;;;;;;;;;;5076629;28;20031;-67
2023/04/30 04:20:34;;;;;;;23.60;15.77;;;;;;;;;;5076233;28;20103;-68
2023/04/30 04:23:00;;;;;;;18.52;14.63;;;;;;;;;;5076298;28;20075;-68
2023/04/30 04:25:27;;;;;;;23.00;16.15;;;;;;;;;;5076402;28;20020;-68
2023/04/30 04:27:54;;;;;;;33.53;22.27;;;;;;;;;;5075683;28;20049;-68
2023/04/30 04:30:21;;;;;;;25.55;17.23;;;;;;;;;;5076327;28;20024;-68
2023/04/30 04:32:50;;;;;;;34.67;19.70;;;;;;;;;;5074470;28;20023;-68
2023/04/30 04:35:18;;;;;;;27.80;18.20;;;;;;;;;;5074210;28;20020;-68
2023/04/30 04:37:44;;;;;;;29.40;18.63;;;;;;;;;;5075025;28;20032;-68
2023/04/30 04:40:11;;;;;;;15.52;13.35;;;;;;;;;;5075564;28;20062;-68
2023/04/30 04:42:38;;;;;;;16.48;13.15;;;;;;;;;;5075358;28;20146;-67
2023/04/30 04:45:08;;;;;;;16.83;12.98;;;;;;;;;;5075567;28;20028;-68
2023/04/30 04:47:35;;;;;;;18.15;13.82;;;;;;;;;;5060308;28;20108;-68
2023/04/30 04:50:02;;;;;;;18.42;13.93;;;;;;;;;;5058964;28;20385;-68
2023/04/30 04:52:29;;;;;;;17.33;14.30;;;;;;;;;;5076119;28;20553;-68
2023/04/30 04:54:55;;;;;;;23.05;15.27;;;;;;;;;;5075798;28;20031;-68
2023/04/30 04:57:22;;;;;;;19.27;15.00;;;;;;;;;;5075623;28;20024;-69
2023/04/30 04:59:49;;;;;;;18.95;14.20;;;;;;;;;;5075737;28;20031;-68
2023/04/30 05:02:15;;;;;;;18.50;14.18;;;;;;;;;;5075513;28;20020;-68
2023/04/30 05:04:42;;;;;;;18.98;14.63;;;;;;;;;;5075511;28;20025;-68
2023/04/30 05:07:09;;;;;;;20.30;15.77;;;;;;;;;;5075541;28;20024;-68
2023/04/30 05:09:35;;;;;;;21.60;17.90;;;;;;;;;;5063892;28;20029;-68
2023/04/30 05:12:02;;;;;;;24.88;15.63;;;;;;;;;;5073639;28;20466;-67
2023/04/30 05:14:29;;;;;;;30.20;19.55;;;;;;;;;;5067527;28;20039;-68
2023/04/30 05:16:56;;;;;;;33.58;23.08;;;;;;;;;;5074238;28;20017;-68
2023/04/30 05:19:22;;;;;;;52.67;33.88;;;;;;;;;;5075137;28;20070;-67
2023/04/30 05:21:50;;;;;;;54.45;33.10;;;;;;;;;;5060968;28;20025;-68
2023/04/30 05:24:16;;;;;;;30.08;20.80;;;;;;;;;;5055170;28;20040;-68
2023/04/30 05:26:43;;;;;;;22.30;16.33;;;;;;;;;;5054901;28;20044;-68
2023/04/30 05:29:10;;;;;;;25.92;16.95;;;;;;;;;;5055136;28;20095;-68
2023/04/30 05:31:37;;;;;;;23.30;16.85;;;;;;;;;;5059451;28;20035;-67
2023/04/30 05:34:04;;;;;;;22.85;16.38;;;;;;;;;;5074369;28;20201;-67
2023/04/30 05:36:31;;;;;;;52.90;32.47;;;;;;;;;;5071758;28;20031;-67
2023/04/30 05:38:58;;;;;;;20.88;17.65;;;;;;;;;;5074037;28;20035;-67
2023/04/30 05:41:24;;;;;;;20.95;14.80;;;;;;;;;;5074087;28;20451;-67
2023/04/30 05:43:51;;;;;;;20.33;14.75;;;;;;;;;;5074308;28;20024;-67
2023/04/30 05:46:18;;;;;;;16.60;13.60;;;;;;;;;;5073922;28;20491;-67
2023/04/30 05:48:44;;;;;;;18.23;14.55;;;;;;;;;;5073746;28;20393;-68
2023/04/30 05:51:11;;;;;;;16.88;13.85;;;;;;;;;;5055762;28;20429;-68
2023/04/30 05:53:38;;;;;;;23.15;15.18;;;;;;;;;;5073832;28;20087;-68
2023/04/30 05:56:04;;;;;;;25.90;17.83;;;;;;;;;;5073638;28;20565;-68
2023/04/30 05:58:31;;;;;;;20.13;14.57;;;;;;;;;;5073174;28;20029;-68
2023/04/30 06:00:58;;;;;;;20.00;13.90;;;;;;;;;;5073619;28;20024;-68
2023/04/30 06:03:25;;;;;;;17.60;14.20;;;;;;;;;;5073739;28;20095;-67
2023/04/30 06:05:52;;;;;;;16.08;14.32;;;;;;;;;;5073592;28;20020;-69
2023/04/30 06:08:18;;;;;;;16.65;14.50;;;;;;;;;;5073629;28;20469;-68
2023/04/30 06:10:45;;;;;;;18.38;15.43;;;;;;;;;;5073525;28;20477;-68
2023/04/30 06:13:13;;;;;;;23.98;15.20;;;;;;;;;;5073253;28;20031;-68
2023/04/30 06:15:40;;;;;;;18.02;14.57;;;;;;;;;;5073526;28;20047;-68
2023/04/30 06:18:07;;;;;;;17.65;14.35;;;;;;;;;;5073422;28;20106;-68
2023/04/30 06:20:34;;;;;;;18.90;15.70;;;;;;;;;;5073326;28;20035;-68
2023/04/30 06:23:02;;;;;;;20.05;14.80;;;;;;;;;;5073532;28;20025;-67
2023/04/30 06:25:29;;;;;;;22.60;16.08;;;;;;;;;;5073304;28;20020;-68
2023/04/30 06:27:55;;;;;;;21.65;15.80;;;;;;;;;;5072934;28;20036;-68
2023/04/30 06:30:22;;;;;;;17.98;15.60;;;;;;;;;;5073111;28;20434;-68
2023/04/30 06:32:49;;;;;;;21.17;16.35;;;;;;;;;;5073078;28;20013;-68
2023/04/30 06:35:16;;;;;;;21.83;17.15;;;;;;;;;;5073055;28;20374;-68
2023/04/30 06:37:42;;;;;;;23.08;16.63;;;;;;;;;;5072745;28;20300;-67
2023/04/30 06:40:09;;;;;;;17.20;15.43;;;;;;;;;;5072955;28;20027;-68
2023/04/30 06:42:35;;;;;;;19.88;16.88;;;;;;;;;;5072820;28;20385;-68
2023/04/30 06:45:02;;;;;;;24.17;17.95;;;;;;;;;;5072950;28;20028;-68
2023/04/30 06:47:35;;;;;;;17.35;14.95;;;;;;;;;;5072940;28;20066;-68
2023/04/30 06:50:02;;;;;;;20.35;17.15;;;;;;;;;;5072635;28;20039;-69
2023/04/30 06:52:28;;;;;;;19.52;16.42;;;;;;;;;;5072731;28;20017;-68
2023/04/30 06:54:55;;;;;;;23.73;17.42;;;;;;;;;;5072637;28;20462;-68
2023/04/30 06:57:23;;;;;;;20.10;15.82;;;;;;;;;;5072282;28;20393;-68
2023/04/30 06:59:50;;;;;;;19.42;16.42;;;;;;;;;;5069939;28;20024;-68
2023/04/30 07:02:17;;;;;;;20.13;16.25;;;;;;;;;;5072614;28;20516;-68
2023/04/30 07:04:43;;;;;;;21.30;15.73;;;;;;;;;;5072456;28;20028;-68
2023/04/30 07:07:10;;;;;;;22.15;16.92;;;;;;;;;;5068001;28;20024;-68
2023/04/30 07:09:37;;;;;;;19.70;16.40;;;;;;;;;;5072569;28;20032;-68
2023/04/30 07:12:03;;;;;;;20.98;15.35;;;;;;;;;;5073273;28;20428;-68
2023/04/30 07:14:30;;;;;;;20.02;16.25;;;;;;;;;;5072522;28;20078;-68
2023/04/30 07:16:57;;;;;;;22.20;17.05;;;;;;;;;;5070825;28;20028;-66
2023/04/30 07:19:25;;;;;;;21.15;16.73;;;;;;;;;;5068950;28;20028;-68
2023/04/30 07:21:52;;;;;;;22.52;18.25;;;;;;;;;;5071768;28;20012;-68
2023/04/30 07:24:19;;;;;;;20.13;15.80;;;;;;;;;;5071343;28;20032;-68
2023/04/30 07:26:45;;;;;;;20.13;16.50;;;;;;;;;;5071116;28;20051;-69
2023/04/30 07:29:12;;;;;;;23.17;17.20;;;;;;;;;;5069481;28;20078;-67
2023/04/30 07:31:39;;;;;;;23.33;17.75;;;;;;;;;;5070666;28;20021;-69
2023/04/30 07:34:05;;;;;;;19.58;17.48;;;;;;;;;;5070618;28;20136;-68
2023/04/30 07:36:32;;;;;;;24.98;17.52;;;;;;;;;;5070646;28;20020;-69
2023/04/30 07:38:59;;;;;;;18.63;16.00;;;;;;;;;;5070869;28;20023;-68
2023/04/30 07:41:25;;;;;;;25.35;19.15;;;;;;;;;;5070392;28;20028;-68
2023/04/30 07:43:52;;;;;;;21.88;17.50;;;;;;;;;;5070611;28;20089;-67
2023/04/30 07:46:19;;;;;;;25.90;19.67;;;;;;;;;;5070574;28;20025;-67
2023/04/30 07:48:45;;;;;;;25.80;18.60;;;;;;;;;;5070434;28;20051;-69
2023/04/30 07:51:12;;;;;;;26.50;19.38;;;;;;;;;;5068963;28;20024;-67
2023/04/30 07:53:38;;;;;;;24.40;21.23;;;;;;;;;;5070312;28;20039;-70
2023/04/30 07:56:06;;;;;;;37.20;31.00;;;;;;;;;;5070432;28;20765;-68
2023/04/30 07:58:32;;;;;;;33.33;27.33;;;;;;;;;;5069237;28;20112;-68
2023/04/30 08:00:59;;;;;;;22.17;18.45;;;;;;;;;;5068765;28;20078;-68
2023/04/30 08:03:26;;;;;;;21.58;17.35;;;;;;;;;;5069736;28;20323;-68
2023/04/30 08:05:52;;;;;;;29.08;22.48;;;;;;;;;;5069258;28;20077;-68
2023/04/30 08:08:19;;;;;;;31.40;20.35;;;;;;;;;;5070979;28;20017;-69
2023/04/30 08:10:46;;;;;;;30.42;20.27;;;;;;;;;;5070358;28;20017;-69
2023/04/30 08:13:13;;;;;;;25.58;20.73;;;;;;;;;;5070076;28;20130;-69
2023/04/30 08:15:39;;;;;;;23.05;19.83;;;;;;;;;;5069858;28;20019;-69
2023/04/30 08:18:09;;;;;;;25.70;18.90;;;;;;;;;;5068549;28;20096;-68
2023/04/30 08:20:36;;;;;;;21.48;18.88;;;;;;;;;;5068359;28;20052;-68
2023/04/30 08:23:02;;;;;;;19.52;17.42;;;;;;;;;;5072429;28;20028;-69
2023/04/30 08:25:30;;;;;;;24.73;19.23;;;;;;;;;;5073390;28;20100;-70
2023/04/30 08:27:57;;;;;;;23.20;19.60;;;;;;;;;;5073732;28;20611;-67
2023/04/30 08:30:24;;;;;;;39.08;19.90;;;;;;;;;;5072279;28;20025;-68
2023/04/30 08:32:51;;;;;;;23.38;19.25;;;;;;;;;;5073084;28;20027;-67
2023/04/30 08:35:18;;;;;;;22.40;19.00;;;;;;;;;;5069828;28;20094;-68
2023/04/30 08:37:45;;;;;;;24.65;19.55;;;;;;;;;;5072423;28;20020;-69
2023/04/30 08:40:12;;;;;;;24.42;19.50;;;;;;;;;;5073656;28;20074;-68
2023/04/30 08:42:44;;;;;;;23.48;19.02;;;;;;;;;;5073641;28;20027;-68
2023/04/30 08:45:13;;;;;;;22.00;19.17;;;;;;;;;;5073701;28;20496;-69
2023/04/30 08:47:40;;;;;;;26.02;20.17;;;;;;;;;;5071694;28;20064;-68
2023/04/30 08:50:07;;;;;;;24.95;19.80;;;;;;;;;;5071833;28;20036;-69
2023/04/30 08:52:35;;;;;;;32.75;23.83;;;;;;;;;;5074282;28;20024;-69
2023/04/30 08:55:01;;;;;;;26.85;22.15;;;;;;;;;;5072920;28;20036;-70
2023/04/30 08:57:28;;;;;;;28.98;20.77;;;;;;;;;;5074496;28;20565;-70
2023/04/30 08:59:55;;;;;;;24.58;21.20;;;;;;;;;;5070450;28;20064;-69
2023/04/30 09:02:21;;;;;;;25.52;21.05;;;;;;;;;;5069651;28;20103;-68
2023/04/30 09:04:48;;;;;;;29.85;23.35;;;;;;;;;;5072894;28;20063;-68
2023/04/30 09:07:16;;;;;;;28.52;22.60;;;;;;;;;;5069840;28;20035;-68
2023/04/30 09:09:43;;;;;;;27.40;21.42;;;;;;;;;;5069617;28;20077;-68
2023/04/30 09:12:18;;;;;;;27.30;23.35;;;;;;;;;;5071408;28;20032;-68
2023/04/30 09:15:05;;;;;;;28.08;23.75;;;;;;;;;;5069900;28;20504;-68
2023/04/30 09:17:33;;;;;;;34.40;24.33;;;;;;;;;;5070983;28;20041;-69
2023/04/30 09:20:09;;;;;;;31.65;24.55;;;;;;;;;;5067975;28;20039;-69
2023/04/30 09:22:37;;;;;;;42.75;34.35;;;;;;;;;;5070439;28;20127;-69
2023/04/30 09:25:03;;;;;;;51.05;37.90;;;;;;;;;;5074745;28;20028;-69
2023/04/30 09:27:30;;;;;;;47.63;35.85;;;;;;;;;;5071850;28;20040;-68
2023/04/30 09:29:57;;;;;;;44.30;35.67;;;;;;;;;;5070027;28;20032;-69
2023/04/30 09:32:24;;;;;;;48.85;38.13;;;;;;;;;;5072645;28;20032;-71
2023/04/30 09:34:50;;;;;;;52.70;41.30;;;;;;;;;;5072900;28;20025;-71
2023/04/30 09:37:17;;;;;;;51.78;41.65;;;;;;;;;;5071893;28;20028;-70
2023/04/30 09:39:54;;;;;;;60.80;45.08;;;;;;;;;;5074836;28;20067;-73
2023/04/30 09:42:21;;;;;;;54.90;43.95;;;;;;;;;;5073985;28;20025;-71
2023/04/30 09:44:48;;;;;;;62.60;46.33;;;;;;;;;;5073852;28;20029;-70
2023/04/30 09:47:18;;;;;;;72.15;52.35;;;;;;;;;;5073883;28;20021;-70
2023/04/30 09:49:52;;;;;;;70.03;51.42;;;;;;;;;;5074335;28;20027;-69
2023/04/30 09:52:18;;;;;;;73.10;49.63;;;;;;;;;;5074304;28;20039;-74
2023/04/30 09:54:46;;;;;;;77.75;52.97;;;;;;;;;;5074378;28;20434;-69
2023/04/30 09:57:14;;;;;;;66.38;50.35;;;;;;;;;;5074174;28;20416;-68
2023/04/30 09:59:44;;;;;;;76.20;56.45;;;;;;;;;;5074060;28;20028;-67
2023/04/30 10:02:16;;;;;;;78.70;55.20;;;;;;;;;;5074028;28;20021;-68
2023/04/30 10:04:43;;;;;;;72.00;56.03;;;;;;;;;;5074195;28;20069;-67
2023/04/30 10:07:13;;;;;;;82.38;57.22;;;;;;;;;;5073894;28;20253;-68
2023/04/30 10:09:43;;;;;;;86.53;61.65;;;;;;;;;;5072191;28;20028;-70
2023/04/30 10:12:14;;;;;;;79.95;58.72;;;;;;;;;;5073832;28;20386;-68
2023/04/30 10:14:46;;;;;;;134.65;85.75;;;;;;;;;;5073745;28;20104;-67
2023/04/30 10:17:14;;;;;;;158.93;94.32;;;;;;;;;;5073775;28;20017;-68
2023/04/30 10:19:42;;;;;;;112.70;75.63;;;;;;;;;;5073072;28;20473;-70
2023/04/30 10:22:09;;;;;;;138.52;87.97;;;;;;;;;;5073571;28;20040;-68
2023/04/30 10:24:36;;;;;;;120.43;78.53;;;;;;;;;;5073669;28;20017;-68
2023/04/30 10:27:03;;;;;;;121.20;80.50;;;;;;;;;;5073071;28;20184;-73
2023/04/30 10:29:30;;;;;;;120.38;80.93;;;;;;;;;;5073783;28;20062;-73
2023/04/30 10:31:57;;;;;;;230.90;206.07;;;;;;;;;;5073573;28;20028;-71
2023/04/30 10:34:26;;;;;;;114.07;82.78;;;;;;;;;;5073636;28;20444;-68
2023/04/30 10:36:58;;;;;;;128.45;89.85;;;;;;;;;;5070508;28;20040;-73
2023/04/30 10:39:27;;;;;;;110.75;76.22;;;;;;;;;;5072993;28;20393;-68
2023/04/30 10:42:03;;;;;;;142.43;93.25;;;;;;;;;;5073703;28;20082;-70
2023/04/30 10:44:32;;;;;;;151.07;89.60;;;;;;;;;;5072661;28;20029;-68
2023/04/30 10:47:01;;;;;;;101.80;69.63;;;;;;;;;;5073357;28;20028;-67
2023/04/30 10:49:28;;;;;;;100.20;69.68;;;;;;;;;;5070820;28;20560;-68
2023/04/30 10:51:57;;;;;;;91.28;62.33;;;;;;;;;;5071719;28;20051;-67
2023/04/30 10:54:26;;;;;;;80.40;58.35;;;;;;;;;;5072630;28;20469;-67
2023/04/30 10:56:55;;;;;;;85.43;59.28;;;;;;;;;;5073096;28;20020;-69
2023/04/30 10:59:23;;;;;;;83.88;58.72;;;;;;;;;;5072323;28;20033;-68
2023/04/30 11:02:00;;;;;;;86.47;58.13;;;;;;;;;;5072868;28;20436;-69
2023/04/30 11:04:27;;;;;;;90.05;58.40;;;;;;;;;;5072464;28;20042;-68
2023/04/30 11:06:53;;;;;;;84.63;59.50;;;;;;;;;;5072007;28;20035;-68
2023/04/30 11:09:24;;;;;;;87.93;60.80;;;;;;;;;;5072794;28;20082;-68
2023/04/30 11:12:01;;;;;;;97.88;68.45;;;;;;;;;;5072517;28;20530;-67
2023/04/30 11:14:31;;;;;;;101.22;70.45;;;;;;;;;;5072340;28;20024;-68
2023/04/30 11:17:01;;;;;;;110.63;77.68;;;;;;;;;;5070811;28;20036;-68
2023/04/30 11:19:29;;;;;;;131.45;85.85;;;;;;;;;;5072597;28;20091;-67
2023/04/30 11:22:04;;;;;;;186.23;133.20;;;;;;;;;;5072328;28;20072;-67
2023/04/30 11:24:51;;;;;;;184.55;126.25;;;;;;;;;;5072176;28;20032;-68
2023/04/30 11:27:21;;;;;;;173.27;114.75;;;;;;;;;;5071724;28;20040;-68
2023/04/30 11:29:49;;;;;;;132.85;92.32;;;;;;;;;;5072740;28;20020;-68
2023/04/30 11:32:16;;;;;;;203.82;144.90;;;;;;;;;;5072379;28;20024;-65
2023/04/30 11:34:44;;;;;;;166.68;113.90;;;;;;;;;;5068820;28;20045;-66
2023/04/30 11:37:16;;;;;;;181.85;133.18;;;;;;;;;;5073204;28;20091;-68
2023/04/30 11:39:42;;;;;;;117.97;81.95;;;;;;;;;;5070691;28;20023;-67
2023/04/30 11:42:09;;;;;;;107.78;79.57;;;;;;;;;;5072026;28;20031;-67
2023/04/30 11:44:37;;;;;;;107.15;76.50;;;;;;;;;;5070888;28;20024;-66
2023/04/30 11:47:04;;;;;;;102.80;77.03;;;;;;;;;;5072113;28;20405;-67
2023/04/30 11:49:32;;;;;;;103.85;76.43;;;;;;;;;;5072381;28;20021;-67
2023/04/30 11:51:59;;;;;;;133.32;98.50;;;;;;;;;;5072484;28;20017;-67
2023/04/30 11:54:26;;;;;;;130.90;91.55;;;;;;;;;;5068660;28;20024;-69
2023/04/30 11:56:52;;;;;;;118.30;86.13;;;;;;;;;;5071058;28;20028;-69
2023/04/30 11:59:19;;;;;;;119.25;80.30;;;;;;;;;;5071795;28;20021;-66
2023/04/30 12:01:46;;;;;;;184.23;134.45;;;;;;;;;;5075004;28;20036;-69
2023/04/30 12:04:13;;;;;;;135.90;91.97;;;;;;;;;;5058555;28;20031;-70
2023/04/30 12:06:42;;;;;;;113.25;81.38;;;;;;;;;;5076157;28;20396;-71
2023/04/30 12:09:10;;;;;;;215.75;160.43;;;;;;;;;;5073964;28;20028;-67
2023/04/30 12:11:37;;;;;;;144.13;104.40;;;;;;;;;;5076245;28;20016;-68
2023/04/30 12:14:06;;;;;;;185.85;128.02;;;;;;;;;;5076370;28;20441;-69
2023/04/30 12:16:47;;;;;;;131.73;90.32;;;;;;;;;;5076631;28;20017;-68
2023/04/30 12:19:15;;;;;;;136.50;93.87;;;;;;;;;;5074948;28;20021;-69
2023/04/30 12:21:45;;;;;;;117.15;84.88;;;;;;;;;;5074343;28;20028;-70
2023/04/30 12:24:13;;;;;;;110.35;83.13;;;;;;;;;;5072343;28;20025;-70
2023/04/30 12:26:41;;;;;;;112.90;80.50;;;;;;;;;;5073133;28;20064;-71
2023/04/30 12:29:09;;;;;;;111.32;77.47;;;;;;;;;;5075774;28;20039;-68
2023/04/30 12:31:37;;;;;;;88.30;60.58;;;;;;;;;;5072748;28;20013;-70
2023/04/30 12:34:07;;;;;;;93.13;62.83;;;;;;;;;;5073751;28;20161;-69
2023/04/30 12:36:35;;;;;;;79.45;56.67;;;;;;;;;;5075811;28;20046;-69
2023/04/30 12:39:08;;;;;;;89.00;60.30;;;;;;;;;;5075122;28;20031;-68
2023/04/30 12:41:54;;;;;;;86.53;58.83;;;;;;;;;;5075102;28;20103;-69
2023/04/30 12:44:23;;;;;;;102.65;76.70;;;;;;;;;;5071016;28;20070;-68
2023/04/30 12:46:52;;;;;;;87.10;63.95;;;;;;;;;;5070650;28;20035;-69
2023/04/30 12:49:29;;;;;;;81.80;57.55;;;;;;;;;;5072585;28;20020;-69
2023/04/30 12:52:02;;;;;;;71.65;52.00;;;;;;;;;;5073642;28;20020;-70
2023/04/30 12:54:31;;;;;;;78.55;57.92;;;;;;;;;;5074669;28;20052;-71
2023/04/30 12:57:07;;;;;;;73.57;53.03;;;;;;;;;;5073796;28;20021;-70
2023/04/30 12:59:36;;;;;;;71.93;52.53;;;;;;;;;;5073110;28;20070;-71
2023/04/30 13:02:08;;;;;;;72.90;51.42;;;;;;;;;;5074321;28;20333;-72
2023/04/30 13:04:35;;;;;;;;;;;;;;;;;;5073895;28;20071;-69
2023/04/30 13:07:02;;;;;;;67.50;49.88;;;;;;;;;;5074075;28;19995;-68
2023/04/30 13:09:29;;;;;;;64.55;48.17;;;;;;;;;;5074251;28;20039;-68
2023/04/30 13:11:55;;;;;;;80.20;54.15;;;;;;;;;;5074218;28;20489;-69
2023/04/30 13:14:22;;;;;;;76.15;52.67;;;;;;;;;;5072938;28;20016;-69
2023/04/30 13:16:49;;;;;;;67.50;48.78;;;;;;;;;;5075329;28;20021;-71
2023/04/30 13:19:15;;;;;;;70.68;51.28;;;;;;;;;;5074235;28;20103;-66
2023/04/30 13:21:42;;;;;;;73.05;52.25;;;;;;;;;;5072847;28;20080;-68
2023/04/30 13:24:09;;;;;;;71.05;49.50;;;;;;;;;;5073732;28;20124;-69
2023/04/30 13:26:35;;;;;;;71.47;48.42;;;;;;;;;;5073829;28;20047;-69
2023/04/30 13:29:06;;;;;;;58.63;43.75;;;;;;;;;;5054705;28;20505;-69
2023/04/30 13:31:33;;;;;;;64.13;46.53;;;;;;;;;;5072833;28;20029;-69
2023/04/30 13:34:00;;;;;;;65.25;46.00;;;;;;;;;;5073349;28;20154;-67
2023/04/30 13:36:27;;;;;;;77.55;52.47;;;;;;;;;;5072543;28;20090;-69
2023/04/30 13:38:54;;;;;;;84.03;52.25;;;;;;;;;;5073494;28;20067;-69
2023/04/30 13:41:21;;;;;;;78.80;51.38;;;;;;;;;;5071888;28;20023;-70
2023/04/30 13:43:48;;;;;;;74.05;48.85;;;;;;;;;;5073992;28;20033;-70
2023/04/30 13:46:15;;;;;;;74.68;49.20;;;;;;;;;;5074362;28;20461;-69
2023/04/30 13:48:42;;;;;;;72.70;49.20;;;;;;;;;;5074520;28;20052;-70
2023/04/30 13:51:08;;;;;;;72.32;49.78;;;;;;;;;;5074964;28;20035;-69
2023/04/30 13:53:36;;;;;;;62.22;43.60;;;;;;;;;;5074721;28;20048;-70
2023/04/30 13:56:02;;;;;;;59.47;42.03;;;;;;;;;;5073589;28;20035;-72
2023/04/30 13:58:29;;;;;;;50.22;38.35;;;;;;;;;;5073005;28;20017;-71
2023/04/30 14:00:55;;;;;;;72.18;51.10;;;;;;;;;;5074246;28;20381;-71
2023/04/30 14:03:22;;;;;;;57.03;42.50;;;;;;;;;;5074251;28;20032;-72
2023/04/30 14:05:49;;;;;;;53.70;39.83;;;;;;;;;;5073949;28;20489;-73
2023/04/30 14:08:16;;;;;;;52.58;38.55;;;;;;;;;;5073920;28;20032;-71
2023/04/30 14:10:42;;;;;;;46.17;34.03;;;;;;;;;;5073997;28;20016;-71
2023/04/30 14:13:09;;;;;;;49.92;35.90;;;;;;;;;;5072069;28;20059;-71
2023/04/30 14:15:37;;;;;;;49.03;37.10;;;;;;;;;;5071676;28;20021;-72
2023/04/30 14:18:04;;;;;;;53.08;36.95;;;;;;;;;;5073743;28;20039;-68